Terminal Aerodrome Forecast
Issued by NWS Shreveport, LA

Home | Current Version | Previous Version | Text Only | Print | Product List | Glossary On
Versions: 1 2 3 4 5 6 7 8 9 10 11 12 13 14 15 16 17
596
FTUS44 KSHV 260130 AAB
TAFMLU
TAF AMD
KMLU 260130Z 2602/2624 08010KT 6SM -TSRA BR SCT045CB BKN060 OVC090
      TEMPO 2602/2603 VRB10G25KT 3SM TSRA BR SCT025CB OVC060
     FM260300 17004KT 6SM BR BKN050 BKN130
     FM261400 25005KT P6SM VCTS BKN045CB OVC080
      TEMPO 2615/2617 3SM -TSRA BKN030CB BKN045 OVC070
     FM261800 27007KT 6SM -SHRA VCTS FEW035 BKN045CB OVC070
     FM262000 27006KT P6SM BKN100 BKN180=

USA.gov is the U.S. government's official web portal to all federal, state and local government web resources and services.